createdAt,value
2019-02-22T00:00:49.563Z,10.51
2019-02-22T00:01:49.531Z,10.44
2019-02-22T00:02:50.610Z,10.42
2019-02-22T00:03:49.775Z,10.38
2019-02-22T00:04:49.269Z,10.46
2019-02-22T00:05:49.535Z,10.42
2019-02-22T00:06:49.760Z,10.37
2019-02-22T00:07:49.509Z,10.44
2019-02-22T00:08:49.509Z,10.44
2019-02-22T00:09:54.540Z,10.35
2019-02-22T00:10:49.509Z,10.38
2019-02-22T00:11:49.730Z,10.35
2019-02-22T00:12:49.476Z,10.42
2019-02-22T00:13:49.731Z,10.42
2019-02-22T00:14:49.466Z,10.34
2019-02-22T00:15:49.706Z,10.42
2019-02-22T00:16:49.466Z,10.35
2019-02-22T00:17:49.484Z,10.38
2019-02-22T00:18:49.719Z,10.4
2019-02-22T00:19:51.146Z,10.42
2019-02-22T00:20:49.437Z,10.37
2019-02-22T00:21:49.442Z,10.42
2019-02-22T00:22:49.698Z,10.37
2019-02-22T00:23:49.451Z,10.37
2019-02-22T00:24:49.163Z,10.38
2019-02-22T00:25:49.162Z,10.35
2019-02-22T00:26:49.656Z,10.44
2019-02-22T00:27:49.431Z,10.42
2019-02-22T00:28:49.654Z,10.34
2019-02-22T00:29:49.260Z,10.4
2019-02-22T00:30:49.401Z,10.41
2019-02-22T00:31:49.387Z,10.35
2019-02-22T00:32:49.639Z,10.44
2019-02-22T00:33:49.364Z,10.42
2019-02-22T00:34:49.790Z,10.4
2019-02-22T00:35:49.799Z,10.37
2019-02-22T00:36:49.482Z,10.34
2019-02-22T00:37:49.358Z,10.37
2019-02-22T00:38:49.630Z,10.33
2019-02-22T00:39:49.360Z,10.37
2019-02-22T00:40:49.591Z,10.35
2019-02-22T00:41:49.345Z,10.33
2019-02-22T00:42:50.298Z,10.31
2019-02-22T00:43:49.599Z,10.34
2019-02-22T00:44:49.317Z,10.25
2019-02-22T00:45:49.602Z,10.16
2019-02-22T00:46:49.552Z,10.22
2019-02-22T00:47:49.562Z,10.26
2019-02-22T00:48:49.547Z,10.1
2019-02-22T00:49:49.056Z,10.15
2019-02-22T00:50:49.287Z,10.04
2019-02-22T00:51:49.294Z,10.1
2019-02-22T00:52:49.293Z,10.15
2019-02-22T00:53:49.286Z,10.1
2019-02-22T00:54:49.529Z,10.13
2019-02-22T00:55:49.256Z,10.1
2019-02-22T00:56:49.256Z,10.07
2019-02-22T00:57:49.504Z,10.15
2019-02-22T00:58:49.249Z,10.07
2019-02-22T00:59:49.237Z,10.09
2019-02-22T01:00:49.483Z,10.1
2019-02-22T01:01:49.492Z,10.04
2019-02-22T01:02:48.972Z,10.1
2019-02-22T01:03:49.219Z,10.1
2019-02-22T01:04:49.537Z,10.02
2019-02-22T01:05:48.972Z,10.12
2019-02-22T01:06:49.216Z,10.15
2019-02-22T01:07:49.242Z,10.05
2019-02-22T01:08:48.935Z,10.1
2019-02-22T01:09:49.213Z,10.05
2019-02-22T01:10:49.437Z,10.2
2019-02-22T01:11:49.191Z,10.2
2019-02-22T01:12:49.415Z,10.15
2019-02-22T01:13:49.173Z,10.17
2019-02-22T01:14:49.169Z,10.12
2019-02-22T01:15:49.417Z,10.07
2019-02-22T01:16:49.422Z,10.15
2019-02-22T01:17:49.475Z,10.16
2019-02-22T01:18:49.405Z,10.22
2019-02-22T01:19:48.916Z,10.15
2019-02-22T01:20:59.269Z,10.17
2019-02-22T01:21:49.129Z,10.12
2019-02-22T01:22:49.125Z,10.19
2019-02-22T01:23:49.369Z,10.3
2019-02-22T01:24:49.123Z,10.25
2019-02-22T01:25:48.867Z,10.28
2019-02-22T01:26:49.130Z,10.22
2019-02-22T01:27:48.848Z,10.28
2019-02-22T01:28:49.370Z,10.33
2019-02-22T01:29:49.104Z,10.31
2019-02-22T01:30:49.116Z,10.34
2019-02-22T01:31:48.849Z,10.33
2019-02-22T01:32:49.092Z,10.37
2019-02-22T01:33:49.397Z,10.4
2019-02-22T01:34:49.414Z,10.3
2019-02-22T01:35:49.065Z,10.37
2019-02-22T01:36:49.355Z,10.37
2019-02-22T01:37:48.813Z,10.48
2019-02-22T01:38:49.057Z,10.44
2019-02-22T01:39:49.320Z,10.51
2019-02-22T01:40:48.806Z,10.54
2019-02-22T01:41:49.290Z,10.54
2019-02-22T01:42:49.271Z,10.53
2019-02-22T01:43:49.009Z,10.54
2019-02-22T01:44:48.788Z,10.6
2019-02-22T01:45:49.264Z,10.61
2019-02-22T01:46:49.248Z,10.67
2019-02-22T01:47:49.251Z,10.64
2019-02-22T01:48:48.992Z,10.64
2019-02-22T01:49:48.994Z,10.74
2019-02-22T01:50:48.863Z,10.72
2019-02-22T01:51:48.979Z,10.78
2019-02-22T01:52:48.739Z,10.74
2019-02-22T01:53:49.217Z,10.76
2019-02-22T01:54:48.961Z,10.74
2019-02-22T01:55:49.203Z,10.79
2019-02-22T01:56:48.963Z,10.76
2019-02-22T01:57:48.698Z,10.64
2019-02-22T01:58:53.390Z,10.72
2019-02-22T01:59:48.940Z,10.74
2019-02-22T02:00:48.943Z,10.74
2019-02-22T02:01:49.186Z,10.74
2019-02-22T02:02:49.174Z,10.67
2019-02-22T02:03:49.161Z,10.64
2019-02-22T02:04:48.915Z,10.71
2019-02-22T02:05:49.173Z,10.71
2019-02-22T02:06:49.180Z,10.67
2019-02-22T02:07:49.147Z,10.64
2019-02-22T02:08:48.898Z,10.64
2019-02-22T02:09:49.140Z,10.68
2019-02-22T02:10:58.885Z,10.64
2019-02-22T02:11:48.893Z,10.75
2019-02-22T02:12:48.922Z,10.68
2019-02-22T02:13:48.967Z,10.64
2019-02-22T02:14:49.119Z,10.68
2019-02-22T02:15:49.116Z,10.68
2019-02-22T02:16:49.115Z,10.64
2019-02-22T02:17:49.120Z,10.69
2019-02-22T02:18:49.098Z,10.71
2019-02-22T02:19:48.843Z,10.76
2019-02-22T02:20:49.244Z,10.75
2019-02-22T02:21:48.859Z,10.87
2019-02-22T02:22:49.088Z,10.86
2019-02-22T02:23:49.086Z,10.93
2019-02-22T02:24:49.176Z,10.96
2019-02-22T02:25:49.067Z,10.97
2019-02-22T02:26:48.817Z,11.07
2019-02-22T02:27:49.062Z,11.12
2019-02-22T02:28:48.817Z,11.19
2019-02-22T02:29:49.040Z,11.19
2019-02-22T02:30:49.061Z,11.27
2019-02-22T02:31:49.042Z,11.27
2019-02-22T02:32:49.033Z,11.43
2019-02-22T02:33:49.023Z,11.32
2019-02-22T02:34:48.781Z,11.36
2019-02-22T02:35:49.066Z,11.5
2019-02-22T02:36:49.027Z,11.47
2019-02-22T02:37:48.757Z,11.44
2019-02-22T02:38:49.102Z,11.47
2019-02-22T02:39:48.791Z,11.54
2019-02-22T02:40:49.001Z,11.51
2019-02-22T02:41:48.989Z,11.57
2019-02-22T02:42:48.985Z,11.62
2019-02-22T02:43:48.729Z,11.65
2019-02-22T02:44:48.972Z,11.54
2019-02-22T02:45:49.022Z,11.55
2019-02-22T02:46:48.744Z,11.62
2019-02-22T02:47:48.987Z,11.68
2019-02-22T02:48:48.719Z,11.69
2019-02-22T02:49:48.955Z,11.73
2019-02-22T02:50:48.964Z,11.7
2019-02-22T02:51:48.703Z,11.72
2019-02-22T02:52:48.698Z,11.72
2019-02-22T02:53:48.932Z,11.73
2019-02-22T02:54:48.676Z,11.73
2019-02-22T02:55:48.934Z,11.77
2019-02-22T02:56:51.171Z,11.78
2019-02-22T02:57:48.922Z,11.72
2019-02-22T02:58:48.948Z,11.68
2019-02-22T02:59:48.658Z,11.69
2019-02-22T03:00:48.910Z,11.63
2019-02-22T03:01:48.947Z,11.66
2019-02-22T03:02:48.905Z,11.69
2019-02-22T03:03:48.905Z,11.77
2019-02-22T03:04:48.892Z,11.69
2019-02-22T03:05:48.887Z,11.75
2019-02-22T03:06:48.900Z,11.59
2019-02-22T03:07:48.666Z,11.62
2019-02-22T03:08:48.877Z,11.62
2019-02-22T03:09:48.612Z,11.55
2019-02-22T03:10:48.872Z,11.57
2019-02-22T03:11:48.617Z,11.55
2019-02-22T03:12:48.864Z,11.57
2019-02-22T03:13:48.886Z,11.54
2019-02-22T03:14:48.838Z,11.57
2019-02-22T03:15:48.847Z,11.59
2019-02-22T03:16:48.844Z,11.62
2019-02-22T03:17:48.872Z,11.6
2019-02-22T03:18:48.845Z,11.63
2019-02-22T03:19:48.578Z,11.57
2019-02-22T03:20:48.835Z,11.57
2019-02-22T03:21:48.836Z,11.6
2019-02-22T03:22:48.563Z,11.57
2019-02-22T03:23:48.567Z,11.62
2019-02-22T03:24:48.815Z,11.62
2019-02-22T03:25:48.803Z,11.57
2019-02-22T03:26:48.569Z,11.57
2019-02-22T03:27:48.802Z,11.63
2019-02-22T03:28:48.802Z,11.52
2019-02-22T03:29:48.787Z,11.51
2019-02-22T03:30:48.549Z,11.52
2019-02-22T03:31:48.801Z,11.48
2019-02-22T03:32:48.789Z,11.48
2019-02-22T03:33:48.791Z,11.54
2019-02-22T03:34:48.759Z,11.51
2019-02-22T03:35:48.510Z,11.5
2019-02-22T03:36:48.762Z,11.47
2019-02-22T03:37:48.499Z,11.52
2019-02-22T03:38:48.744Z,11.47
2019-02-22T03:39:48.764Z,11.47
2019-02-22T03:40:48.510Z,11.52
2019-02-22T03:41:48.497Z,11.41
2019-02-22T03:42:48.721Z,11.47
2019-02-22T03:43:48.736Z,11.45
2019-02-22T03:44:48.472Z,11.45
2019-02-22T03:45:48.465Z,11.48
2019-02-22T03:46:48.464Z,11.51
2019-02-22T03:47:48.717Z,11.52
2019-02-22T03:48:49.018Z,11.35
2019-02-22T03:49:48.452Z,11.51
2019-02-22T03:50:48.704Z,11.44
2019-02-22T03:51:48.706Z,11.5
2019-02-22T03:52:48.450Z,11.47
2019-02-22T03:53:48.428Z,11.35
2019-02-22T03:54:48.671Z,11.41
2019-02-22T03:55:48.442Z,11.52
2019-02-22T03:56:48.432Z,11.43
2019-02-22T03:57:48.412Z,11.4
2019-02-22T03:58:48.418Z,11.4
2019-02-22T03:59:51.012Z,11.33
2019-02-22T04:00:48.400Z,11.37
2019-02-22T04:01:48.669Z,11.33
2019-02-22T04:02:48.411Z,11.37
2019-02-22T04:03:48.638Z,11.4
2019-02-22T04:04:48.390Z,11.41
2019-02-22T04:05:48.377Z,11.43
2019-02-22T04:06:48.378Z,11.35
2019-02-22T04:07:48.373Z,11.37
2019-02-22T04:08:48.619Z,11.43
2019-02-22T04:09:48.120Z,11.41
2019-02-22T04:10:48.363Z,11.32
2019-02-22T04:11:50.953Z,11.27
2019-02-22T04:12:48.338Z,11.32
2019-02-22T04:13:48.593Z,11.3
2019-02-22T04:14:48.342Z,11.33
2019-02-22T04:15:48.577Z,11.36
2019-02-22T04:16:48.327Z,11.3
2019-02-22T04:17:48.335Z,11.29
2019-02-22T04:18:48.067Z,11.33
2019-02-22T04:19:48.559Z,11.27
2019-02-22T04:20:48.309Z,11.08
2019-02-22T04:21:48.335Z,11.14
2019-02-22T04:22:49.293Z,11.17
2019-02-22T04:23:48.299Z,11.19
2019-02-22T04:24:48.328Z,11.08
2019-02-22T04:25:48.285Z,11.05
2019-02-22T04:26:48.339Z,11.1
2019-02-22T04:27:48.521Z,11.04
2019-02-22T04:28:49.071Z,11.05
2019-02-22T04:29:48.272Z,11.04
2019-02-22T04:30:48.272Z,11.04
2019-02-22T04:31:48.277Z,11
2019-02-22T04:32:48.011Z,10.96
2019-02-22T04:33:48.000Z,10.96
2019-02-22T04:34:48.267Z,10.93
2019-02-22T04:35:47.978Z,10.9
2019-02-22T04:36:48.496Z,10.97
2019-02-22T04:37:48.488Z,10.9
2019-02-22T04:38:48.465Z,10.92
2019-02-22T04:39:48.473Z,10.92
2019-02-22T04:40:48.213Z,10.93
2019-02-22T04:41:59.900Z,10.9
2019-02-22T04:42:48.185Z,10.84
2019-02-22T04:43:47.962Z,10.82
2019-02-22T04:44:48.436Z,10.84
2019-02-22T04:45:48.194Z,10.78
2019-02-22T04:46:48.186Z,10.9
2019-02-22T04:47:48.167Z,10.81
2019-02-22T04:48:48.416Z,10.82
2019-02-22T04:49:48.169Z,10.72
2019-02-22T04:50:48.394Z,10.76
2019-02-22T04:51:47.917Z,10.79
2019-02-22T04:52:48.401Z,10.69
2019-02-22T04:53:47.915Z,10.72
2019-02-22T04:54:48.131Z,10.76
2019-02-22T04:55:48.132Z,10.75
2019-02-22T04:56:48.400Z,10.74
2019-02-22T04:57:48.357Z,10.72
2019-02-22T04:58:48.356Z,10.74
2019-02-22T04:59:48.110Z,10.72
2019-02-22T05:00:48.367Z,10.75
2019-02-22T05:01:48.121Z,10.72
2019-02-22T05:02:48.103Z,10.72
2019-02-22T05:03:48.107Z,10.76
2019-02-22T05:04:48.318Z,10.79
2019-02-22T05:05:48.067Z,10.78
2019-02-22T05:06:48.327Z,10.64
2019-02-22T05:07:48.335Z,10.71
2019-02-22T05:08:48.066Z,10.53
2019-02-22T05:09:48.343Z,10.63
2019-02-22T05:10:48.078Z,10.57
2019-02-22T05:11:48.319Z,10.61
2019-02-22T05:12:48.042Z,10.61
2019-02-22T05:13:48.288Z,10.54
2019-02-22T05:14:47.827Z,10.54
2019-02-22T05:15:48.293Z,10.57
2019-02-22T05:16:47.780Z,10.48
2019-02-22T05:17:48.297Z,10.51
2019-02-22T05:18:48.267Z,10.54
2019-02-22T05:19:48.255Z,10.4
2019-02-22T05:20:48.261Z,10.38
2019-02-22T05:21:48.247Z,10.44
2019-02-22T05:22:48.248Z,10.42
2019-02-22T05:23:48.223Z,10.4
2019-02-22T05:24:48.232Z,10.42
2019-02-22T05:25:48.249Z,10.34
2019-02-22T05:26:47.984Z,10.34
2019-02-22T05:27:47.718Z,10.37
2019-02-22T05:28:48.246Z,10.42
2019-02-22T05:29:48.215Z,10.35
2019-02-22T05:30:47.993Z,10.35
2019-02-22T05:31:47.954Z,10.35
2019-02-22T05:32:48.184Z,10.35
2019-02-22T05:33:47.693Z,10.34
2019-02-22T05:34:47.947Z,10.33
2019-02-22T05:35:47.917Z,10.41
2019-02-22T05:36:49.181Z,10.3
2019-02-22T05:37:48.152Z,10.33
2019-02-22T05:38:47.656Z,10.31
2019-02-22T05:39:48.148Z,10.33
2019-02-22T05:40:47.888Z,10.34
2019-02-22T05:41:47.635Z,10.28
2019-02-22T05:42:47.628Z,10.31
2019-02-22T05:43:47.893Z,10.26
2019-02-22T05:44:48.116Z,10.26
2019-02-22T05:45:48.129Z,10.22
2019-02-22T05:46:59.631Z,10.2
2019-02-22T05:47:48.110Z,10.31
2019-02-22T05:48:47.850Z,10.28
2019-02-22T05:49:48.087Z,10.16
2019-02-22T05:50:48.087Z,10.17
2019-02-22T05:51:48.085Z,10.17
2019-02-22T05:52:48.129Z,10.23
2019-02-22T05:53:48.178Z,10.26
2019-02-22T05:54:48.065Z,10.22
2019-02-22T05:55:49.030Z,10.23
2019-02-22T05:56:48.070Z,10.16
2019-02-22T05:57:48.141Z,10.17
2019-02-22T05:58:48.071Z,10.26
2019-02-22T05:59:48.041Z,10.2
2019-02-22T06:00:47.545Z,10.2
2019-02-22T06:01:48.159Z,10.12
2019-02-22T06:02:47.611Z,10.13
2019-02-22T06:03:47.777Z,10.2
2019-02-22T06:04:47.868Z,10.22
2019-02-22T06:05:48.020Z,10.2
2019-02-22T06:06:47.786Z,10.2
2019-02-22T06:07:48.111Z,10.3
2019-02-22T06:08:47.745Z,10.15
2019-02-22T06:09:48.272Z,10.16
2019-02-22T06:10:47.728Z,10.09
2019-02-22T06:11:47.507Z,10.13
2019-02-22T06:12:47.721Z,10.3
2019-02-22T06:13:47.493Z,10.2
2019-02-22T06:14:48.054Z,10.22
2019-02-22T06:15:48.056Z,10.15
2019-02-22T06:16:47.837Z,10.09
2019-02-22T06:17:47.737Z,10.17
2019-02-22T06:18:47.684Z,10.15
2019-02-22T06:19:47.683Z,10.15
2019-02-22T06:20:47.442Z,10.16
2019-02-22T06:21:47.663Z,10.05
2019-02-22T06:22:47.664Z,10.09
2019-02-22T06:23:47.676Z,10.13
2019-02-22T06:24:47.900Z,10.13
2019-02-22T06:25:47.645Z,10.2
2019-02-22T06:26:48.136Z,10.13
2019-02-22T06:27:47.633Z,10.2
2019-02-22T06:28:47.874Z,10.16
2019-02-22T06:29:49.324Z,10.1
2019-02-22T06:30:47.624Z,10.1
2019-02-22T06:31:47.619Z,10.13
2019-02-22T06:32:48.007Z,10.1
2019-02-22T06:33:47.613Z,10.15
2019-02-22T06:34:47.615Z,10.17
2019-02-22T06:35:47.593Z,10.05
2019-02-22T06:36:47.597Z,10.12
2019-02-22T06:37:48.143Z,10.2
2019-02-22T06:38:49.190Z,10.13
2019-02-22T06:39:48.154Z,10.16
2019-02-22T06:40:50.490Z,10.17
2019-02-22T06:41:47.906Z,10.16
2019-02-22T06:42:50.715Z,10.17
2019-02-22T06:43:47.648Z,10.17
2019-02-22T06:44:47.546Z,10.17
2019-02-22T06:45:47.590Z,10.16
2019-02-22T06:46:47.290Z,10.16
2019-02-22T06:47:48.089Z,10.15
2019-02-22T06:48:47.533Z,10.19
2019-02-22T06:49:49.725Z,10.16
2019-02-22T06:50:47.509Z,10.13
2019-02-22T06:51:47.540Z,10.15
2019-02-22T06:52:47.531Z,10.12
2019-02-22T06:53:47.493Z,10.16
2019-02-22T06:54:47.502Z,10.17
2019-02-22T06:55:47.265Z,10.22
2019-02-22T06:56:47.738Z,10.15
2019-02-22T06:57:47.468Z,10.07
2019-02-22T06:58:47.477Z,10.15
2019-02-22T06:59:47.735Z,10.17
2019-02-22T07:00:47.468Z,10.15
2019-02-22T07:01:49.773Z,10.13
2019-02-22T07:02:47.688Z,10.1
2019-02-22T07:03:47.694Z,10.13
2019-02-22T07:04:47.694Z,10.15
2019-02-22T07:05:47.690Z,10.12
2019-02-22T07:06:47.451Z,10.15
2019-02-22T07:07:47.175Z,10.17
2019-02-22T07:08:47.730Z,10.19
2019-02-22T07:09:47.168Z,10.19
2019-02-22T07:10:47.416Z,10.22
2019-02-22T07:11:47.665Z,10.22
2019-02-22T07:12:58.809Z,10.17
2019-02-22T07:13:47.405Z,10.05
2019-02-22T07:14:47.632Z,10.2
2019-02-22T07:15:47.378Z,10.16
2019-02-22T07:16:47.656Z,10.19
2019-02-22T07:17:47.631Z,10.2
2019-02-22T07:18:49.752Z,10.13
2019-02-22T07:19:47.681Z,10.09
2019-02-22T07:20:47.671Z,10.2
2019-02-22T07:21:57.481Z,10.16
2019-02-22T07:22:47.589Z,10.12
2019-02-22T07:23:47.626Z,10.2
2019-02-22T07:24:47.604Z,10.12
2019-02-22T07:25:47.584Z,10.09
2019-02-22T07:26:47.591Z,10.16
2019-02-22T07:27:47.565Z,10.13
2019-02-22T07:28:47.556Z,10.33
2019-02-22T07:29:47.304Z,10.12
2019-02-22T07:30:47.588Z,10.13
2019-02-22T07:31:47.306Z,10.25
2019-02-22T07:32:48.133Z,10.2
2019-02-22T07:33:47.321Z,10.23
2019-02-22T07:34:47.282Z,10.23
2019-02-22T07:35:47.283Z,10.28
2019-02-22T07:36:47.276Z,10.33
2019-02-22T07:37:47.521Z,10.31
2019-02-22T07:38:47.552Z,10.31
2019-02-22T07:39:47.264Z,10.33
2019-02-22T07:40:47.344Z,10.23
2019-02-22T07:41:47.491Z,10.3
2019-02-22T07:42:47.521Z,10.31
2019-02-22T07:43:47.254Z,10.25
2019-02-22T07:44:47.595Z,10.26
2019-02-22T07:45:47.224Z,10.26
2019-02-22T07:46:47.471Z,10.25
2019-02-22T07:47:47.214Z,10.25
2019-02-22T07:48:47.217Z,10.3
2019-02-22T07:49:47.451Z,10.33
2019-02-22T07:50:58.911Z,10.35
2019-02-22T07:51:47.192Z,10.35
2019-02-22T07:52:50.450Z,10.31
2019-02-22T07:53:47.419Z,10.3
2019-02-22T07:54:47.216Z,10.37
2019-02-22T07:55:47.173Z,10.33
2019-02-22T07:56:47.241Z,10.37
2019-02-22T07:57:47.070Z,10.38
2019-02-22T07:58:46.912Z,10.31
2019-02-22T07:59:47.418Z,10.42
2019-02-22T08:00:47.422Z,10.34
2019-02-22T08:01:52.688Z,10.34
2019-02-22T08:02:47.444Z,10.38
2019-02-22T08:03:47.177Z,10.4
2019-02-22T08:04:47.157Z,10.44
2019-02-22T08:05:46.875Z,10.38
2019-02-22T08:06:47.449Z,10.38
2019-02-22T08:07:47.362Z,10.48
2019-02-22T08:08:50.285Z,10.41
2019-02-22T08:09:47.124Z,10.51
2019-02-22T08:10:47.541Z,10.41
2019-02-22T08:11:49.837Z,10.51
2019-02-22T08:12:47.072Z,10.54
2019-02-22T08:13:47.078Z,10.56
2019-02-22T08:14:47.346Z,10.61
2019-02-22T08:15:47.093Z,10.57
2019-02-22T08:16:47.331Z,10.69
2019-02-22T08:17:47.320Z,10.69
2019-02-22T08:18:47.299Z,10.78
2019-02-22T08:19:47.321Z,10.67
2019-02-22T08:20:47.041Z,10.76
2019-02-22T08:21:47.276Z,10.78
2019-02-22T08:22:47.281Z,10.82
2019-02-22T08:23:47.068Z,10.84
2019-02-22T08:24:47.263Z,10.9
2019-02-22T08:25:47.012Z,10.9
2019-02-22T08:26:46.763Z,10.82
2019-02-22T08:27:58.514Z,10.84
2019-02-22T08:28:47.250Z,10.94
2019-02-22T08:29:47.278Z,10.96
2019-02-22T08:30:47.254Z,11.05
2019-02-22T08:31:46.996Z,11
2019-02-22T08:32:47.242Z,11.07
2019-02-22T08:33:46.729Z,11.15
2019-02-22T08:34:48.386Z,11.15
2019-02-22T08:35:47.041Z,11.29
2019-02-22T08:36:47.209Z,11.27
2019-02-22T08:37:47.219Z,11.33
2019-02-22T08:38:47.240Z,11.4
2019-02-22T08:39:58.068Z,11.44
2019-02-22T08:40:47.199Z,11.52
2019-02-22T08:41:47.251Z,11.52
2019-02-22T08:42:47.188Z,11.52
2019-02-22T08:43:46.932Z,11.57
2019-02-22T08:44:47.228Z,11.65
2019-02-22T08:45:47.188Z,11.68
2019-02-22T08:46:47.035Z,11.72
2019-02-22T08:47:47.185Z,11.8
2019-02-22T08:48:47.190Z,11.8
2019-02-22T08:49:46.916Z,11.81
2019-02-22T08:50:47.173Z,11.84
2019-02-22T08:51:47.024Z,11.69
2019-02-22T08:52:47.056Z,11.8
2019-02-22T08:53:46.895Z,11.72
2019-02-22T08:54:51.939Z,11.83
2019-02-22T08:55:47.949Z,11.84
2019-02-22T08:56:46.963Z,11.9
2019-02-22T08:57:46.889Z,11.84
2019-02-22T08:58:46.892Z,12.03
2019-02-22T08:59:47.132Z,11.99
2019-02-22T09:00:47.145Z,12.07
2019-02-22T09:01:47.158Z,12.21
2019-02-22T09:02:46.881Z,12.13
2019-02-22T09:03:55.643Z,12.03
2019-02-22T09:04:47.063Z,12.06
2019-02-22T09:05:47.100Z,12
2019-02-22T09:06:47.181Z,11.95
2019-02-22T09:07:47.077Z,12.03
2019-02-22T09:08:47.107Z,11.95
2019-02-22T09:09:47.135Z,11.86
2019-02-22T09:10:46.593Z,12.04
2019-02-22T09:11:47.099Z,11.95
2019-02-22T09:12:47.128Z,12.02
2019-02-22T09:13:48.741Z,12
2019-02-22T09:14:47.079Z,11.99
2019-02-22T09:15:47.085Z,12.06
2019-02-22T09:16:47.049Z,12.07
2019-02-22T09:17:46.830Z,12.06
2019-02-22T09:18:47.076Z,12.13
2019-02-22T09:19:47.093Z,12.15
2019-02-22T09:20:47.065Z,12.29
2019-02-22T09:21:46.822Z,12.2
2019-02-22T09:22:46.815Z,12.25
2019-02-22T09:23:47.106Z,12.36
2019-02-22T09:24:47.088Z,12.29
2019-02-22T09:25:47.040Z,12.31
2019-02-22T09:26:47.030Z,12.28
2019-02-22T09:27:47.028Z,12.22
2019-02-22T09:28:47.089Z,12.12
2019-02-22T09:29:57.822Z,12.04
2019-02-22T09:30:46.772Z,12.09
2019-02-22T09:31:46.798Z,12.03
2019-02-22T09:32:47.030Z,11.99
2019-02-22T09:33:46.764Z,11.97
2019-02-22T09:34:48.608Z,12.13
2019-02-22T09:35:47.103Z,12.12
2019-02-22T09:36:47.091Z,12.04
2019-02-22T09:37:46.767Z,12.09
2019-02-22T09:38:46.505Z,12.07
2019-02-22T09:39:46.748Z,12.22
2019-02-22T09:40:46.986Z,12.22
2019-02-22T09:41:46.989Z,12.29
2019-02-22T09:42:46.741Z,12.32
2019-02-22T09:43:57.797Z,12.36
2019-02-22T09:44:46.986Z,12.27
2019-02-22T09:45:46.970Z,12.32
2019-02-22T09:46:46.995Z,12.35
2019-02-22T09:47:46.724Z,12.27
2019-02-22T09:48:47.085Z,12.22
2019-02-22T09:49:46.927Z,12.25
2019-02-22T09:50:46.708Z,12.15
2019-02-22T09:51:46.713Z,12.31
2019-02-22T09:52:46.710Z,12.17
2019-02-22T09:53:46.711Z,12.27
2019-02-22T09:54:47.046Z,12.27
2019-02-22T09:55:46.687Z,12.32
2019-02-22T09:56:47.173Z,12.31
2019-02-22T09:57:46.711Z,12.31
2019-02-22T09:58:46.775Z,12.32
2019-02-22T09:59:46.918Z,12.37
2019-02-22T10:00:46.927Z,12.37
2019-02-22T10:01:46.954Z,12.5
2019-02-22T10:02:49.503Z,12.65
2019-02-22T10:03:46.669Z,12.7
2019-02-22T10:04:57.272Z,12.72
2019-02-22T10:05:46.675Z,12.67
2019-02-22T10:06:46.665Z,12.85
2019-02-22T10:07:46.671Z,12.78
2019-02-22T10:08:46.658Z,12.83
2019-02-22T10:09:46.920Z,12.9
2019-02-22T10:10:46.706Z,12.8
2019-02-22T10:11:46.889Z,12.79
2019-02-22T10:12:47.052Z,12.78
2019-02-22T10:13:46.391Z,12.75
2019-02-22T10:14:47.102Z,12.73
2019-02-22T10:15:47.074Z,12.6
2019-02-22T10:16:46.656Z,12.58
2019-02-22T10:17:46.636Z,12.53
2019-02-22T10:18:47.048Z,12.49
2019-02-22T10:19:47.013Z,12.47
2019-02-22T10:20:46.365Z,12.49
2019-02-22T10:21:46.629Z,12.6
2019-02-22T10:22:46.625Z,12.65
2019-02-22T10:23:46.625Z,12.67
2019-02-22T10:24:46.700Z,12.75
2019-02-22T10:25:46.625Z,12.93
2019-02-22T10:26:46.364Z,12.9
2019-02-22T10:27:46.631Z,12.86
2019-02-22T10:28:46.626Z,12.8
2019-02-22T10:29:46.841Z,12.87
2019-02-22T10:30:47.043Z,12.87
2019-02-22T10:31:46.625Z,12.9
2019-02-22T10:32:47.087Z,12.9
2019-02-22T10:33:47.092Z,12.8
2019-02-22T10:34:47.071Z,12.78
2019-02-22T10:35:47.061Z,12.82
2019-02-22T10:36:50.519Z,12.73
2019-02-22T10:37:46.575Z,12.82
2019-02-22T10:38:46.576Z,12.83
2019-02-22T10:39:46.588Z,12.79
2019-02-22T10:40:46.576Z,13.01
2019-02-22T10:41:46.805Z,13.04
2019-02-22T10:42:46.631Z,13
2019-02-22T10:43:46.820Z,13.16
2019-02-22T10:44:46.812Z,13.16
2019-02-22T10:45:47.101Z,13.27
2019-02-22T10:46:46.553Z,13.23
2019-02-22T10:47:46.818Z,13.19
2019-02-22T10:48:46.549Z,13.16
2019-02-22T10:49:47.115Z,13.19
2019-02-22T10:50:46.793Z,13.2
2019-02-22T10:51:46.631Z,13.39
2019-02-22T10:52:46.603Z,13.52
2019-02-22T10:53:46.534Z,13.7
2019-02-22T10:54:46.526Z,13.85
2019-02-22T10:55:46.782Z,13.79
2019-02-22T10:56:46.780Z,13.86
2019-02-22T10:57:46.536Z,13.79
2019-02-22T10:58:46.521Z,13.81
2019-02-22T10:59:46.263Z,13.86
2019-02-22T11:00:47.095Z,13.83
2019-02-22T11:01:46.518Z,13.77
2019-02-22T11:02:46.519Z,13.74
2019-02-22T11:03:46.768Z,13.81
2019-02-22T11:04:46.267Z,13.71
2019-02-22T11:05:46.496Z,13.72
2019-02-22T11:06:46.259Z,13.67
2019-02-22T11:07:46.503Z,13.7
2019-02-22T11:08:46.501Z,13.71
2019-02-22T11:09:46.490Z,13.54
2019-02-22T11:10:47.121Z,13.47
2019-02-22T11:11:46.781Z,13.39
2019-02-22T11:12:46.726Z,13.37
2019-02-22T11:13:46.231Z,13.3
2019-02-22T11:14:46.475Z,13.25
2019-02-22T11:15:46.472Z,13.15
2019-02-22T11:16:47.012Z,13.2
2019-02-22T11:17:46.763Z,13.18
2019-02-22T11:18:46.746Z,13.15
2019-02-22T11:19:47.021Z,13.25
2019-02-22T11:20:46.722Z,13.16
2019-02-22T11:21:46.223Z,13.05
2019-02-22T11:22:46.473Z,13.18
2019-02-22T11:23:46.204Z,13.18
2019-02-22T11:24:46.482Z,13.23
2019-02-22T11:25:46.703Z,13.28
2019-02-22T11:26:46.703Z,13.28
2019-02-22T11:27:46.689Z,13.41
2019-02-22T11:28:46.701Z,13.35
2019-02-22T11:29:48.840Z,13.3
2019-02-22T11:30:46.445Z,13.37
2019-02-22T11:31:47.038Z,13.33
2019-02-22T11:32:46.182Z,13.16
2019-02-22T11:33:46.682Z,13.25
2019-02-22T11:34:46.675Z,13.01
2019-02-22T11:35:46.676Z,13.04
2019-02-22T11:36:46.678Z,13.01
2019-02-22T11:37:46.420Z,13.19
2019-02-22T11:38:46.422Z,13.16
2019-02-22T11:39:46.414Z,13.12
2019-02-22T11:40:46.440Z,13.3
2019-02-22T11:41:46.429Z,13.35
2019-02-22T11:42:46.650Z,13.47
2019-02-22T11:43:46.407Z,13.54
2019-02-22T11:44:46.658Z,13.5
2019-02-22T11:45:46.660Z,13.57
2019-02-22T11:46:46.424Z,13.59
2019-02-22T11:47:46.162Z,13.54
2019-02-22T11:48:46.409Z,13.62
2019-02-22T11:49:46.399Z,13.81
2019-02-22T11:50:46.632Z,13.87
2019-02-22T11:51:46.400Z,13.93
2019-02-22T11:52:46.395Z,14
2019-02-22T11:53:46.655Z,14.14
2019-02-22T11:54:46.393Z,14.15
2019-02-22T11:55:46.634Z,14.17
2019-02-22T11:56:46.629Z,14.18
2019-02-22T11:57:46.627Z,14.17
2019-02-22T11:58:46.386Z,14.08
2019-02-22T11:59:46.390Z,14.18
2019-02-22T12:00:46.358Z,14.32
2019-02-22T12:01:46.361Z,14.35
2019-02-22T12:02:47.845Z,14.45
2019-02-22T12:03:46.374Z,14.53
2019-02-22T12:04:46.602Z,14.62
2019-02-22T12:05:46.359Z,14.89
2019-02-22T12:06:46.612Z,15.04
2019-02-22T12:07:46.360Z,15.15
2019-02-22T12:08:46.603Z,15.1
2019-02-22T12:09:46.608Z,15.02
2019-02-22T12:10:46.604Z,14.96
2019-02-22T12:11:46.619Z,14.63
2019-02-22T12:12:46.123Z,14.59
2019-02-22T12:13:46.352Z,14.48
2019-02-22T12:14:56.120Z,14.4
2019-02-22T12:15:46.345Z,14.51
2019-02-22T12:16:46.605Z,14.45
2019-02-22T12:17:46.352Z,14.36
2019-02-22T12:18:46.348Z,14.23
2019-02-22T12:19:46.342Z,14.14
2019-02-22T12:20:46.595Z,14.15
2019-02-22T12:21:46.605Z,14.14
2019-02-22T12:22:46.344Z,14.07
2019-02-22T12:23:46.341Z,13.96
2019-02-22T12:24:46.585Z,13.79
2019-02-22T12:25:47.046Z,13.79
2019-02-22T12:26:46.599Z,13.75
2019-02-22T12:27:46.583Z,13.72
2019-02-22T12:28:46.593Z,13.79
2019-02-22T12:29:46.085Z,13.79
2019-02-22T12:30:46.363Z,13.81
2019-02-22T12:31:46.645Z,13.7
2019-02-22T12:32:46.324Z,13.65
2019-02-22T12:33:46.560Z,13.59
2019-02-22T12:34:46.591Z,13.56
2019-02-22T12:35:46.584Z,13.5
2019-02-22T12:36:46.098Z,13.5
2019-02-22T12:37:46.643Z,13.47
2019-02-22T12:38:46.320Z,13.5
2019-02-22T12:39:46.545Z,13.5
2019-02-22T12:40:46.549Z,13.47
2019-02-22T12:41:46.080Z,13.39
2019-02-22T12:42:46.624Z,13.41
2019-02-22T12:43:46.586Z,13.38
2019-02-22T12:44:46.552Z,13.38
2019-02-22T12:45:46.046Z,13.41
2019-02-22T12:46:46.531Z,13.5
2019-02-22T12:47:46.558Z,13.44
2019-02-22T12:48:46.288Z,13.44
2019-02-22T12:49:46.276Z,13.44
2019-02-22T12:50:46.281Z,13.56
2019-02-22T12:51:46.530Z,13.53
2019-02-22T12:52:46.282Z,13.54
2019-02-22T12:53:46.552Z,13.52
2019-02-22T12:54:46.275Z,13.53
2019-02-22T12:55:46.295Z,13.49
2019-02-22T12:57:01.785Z,13.5